首页
METAR-TAF:

METAR-TAF

机场 :

Ocala International Airport (Jim Taylor Field)

Ocala, 佛罗里达州, 美国

纬度: 29-10N, 经度: 082-13W, 海拔: 27米

当前天气观测

该预报发布于1小时和1分钟前的12:51 UTC
风速4节,风向多变
温度 9°C
湿度 93%
气压 1026 hPa
能見度: 16.1公里
天空无云

METAR: KOCF 231251Z VRB04KT 10SM CLR 09/08 A3029 RMK AO2 SLP256 T00890083 $

时间: 08:52 (13:52 UTC)


TAF: 丢失

超过4000个机场的气象观测和天气预报(METAR&TAF报告)。

可查询的气象台以黄色和红色小点在地图上表示。

将鼠标移到小点上方,可查看气象台名称。

然后点击查看天气观测和预报。

如需切换地图:点击带黑十字的绿色按钮放大地图;点击带横线的绿色按钮缩小地图;或者点击绿色箭头查看邻近地区的地图。


METAR-TAF: